createdAt,value
2018-12-09T00:00:15.107Z,9.96
2018-12-09T00:02:43.155Z,10.03
2018-12-09T00:05:11.305Z,10.05
2018-12-09T00:07:39.449Z,10.08
2018-12-09T00:10:08.050Z,10.08
2018-12-09T00:12:36.137Z,10.05
2018-12-09T00:15:05.055Z,10.09
2018-12-09T00:17:33.151Z,10.09
2018-12-09T00:20:01.278Z,10.08
2018-12-09T00:22:29.351Z,10.15
2018-12-09T00:24:57.546Z,10.15
2018-12-09T00:27:25.595Z,10.17
2018-12-09T00:29:53.691Z,10.18
2018-12-09T00:32:21.805Z,10.19
2018-12-09T00:34:49.872Z,10.21
2018-12-09T00:37:17.895Z,10.07
2018-12-09T00:39:45.990Z,10.05
2018-12-09T00:42:14.146Z,10.06
2018-12-09T00:44:42.403Z,10.14
2018-12-09T00:47:10.499Z,10.07
2018-12-09T00:49:38.567Z,10.11
2018-12-09T00:52:06.606Z,10.16
2018-12-09T00:54:34.715Z,10.08
2018-12-09T00:57:02.883Z,10.05
2018-12-09T00:59:30.955Z,10.02
2018-12-09T01:02:00.951Z,9.95
2018-12-09T01:04:29.024Z,10.06
2018-12-09T01:06:57.286Z,10.13
2018-12-09T01:09:25.771Z,10.13
2018-12-09T01:11:53.851Z,10.16
2018-12-09T01:14:21.923Z,10.17
2018-12-09T01:16:50.087Z,10.19
2018-12-09T01:19:18.171Z,10.14
2018-12-09T01:21:46.247Z,10.11
2018-12-09T01:24:14.541Z,10.09
2018-12-09T01:26:42.575Z,10.04
2018-12-09T01:29:10.739Z,9.94
2018-12-09T01:31:38.831Z,9.94
2018-12-09T01:34:06.903Z,9.81
2018-12-09T01:36:34.951Z,9.87
2018-12-09T01:39:03.479Z,9.76
2018-12-09T01:41:31.631Z,9.73
2018-12-09T01:43:59.794Z,9.73
2018-12-09T01:46:28.445Z,9.74
2018-12-09T01:48:56.578Z,9.79
2018-12-09T01:51:24.711Z,9.65
2018-12-09T01:53:58.867Z,9.66
2018-12-09T01:56:26.998Z,9.61
2018-12-09T01:58:55.161Z,9.53
2018-12-09T02:01:23.194Z,9.58
2018-12-09T02:03:51.359Z,9.52
2018-12-09T02:06:19.431Z,9.47
2018-12-09T02:08:48.322Z,9.50
2018-12-09T02:11:16.563Z,9.50
2018-12-09T02:13:44.687Z,9.45
2018-12-09T02:16:12.799Z,9.47
2018-12-09T02:18:40.834Z,9.39
2018-12-09T02:21:08.963Z,9.31
2018-12-09T02:23:37.068Z,9.37
2018-12-09T02:26:05.199Z,9.32
2018-12-09T02:28:33.374Z,9.27
2018-12-09T02:31:02.439Z,9.28
2018-12-09T02:33:31.150Z,9.26
2018-12-09T02:35:59.197Z,9.23
2018-12-09T02:38:27.743Z,9.32
2018-12-09T02:40:55.921Z,9.22
2018-12-09T02:43:24.088Z,9.28
2018-12-09T02:45:52.135Z,9.25
2018-12-09T02:48:20.194Z,9.34
2018-12-09T02:50:48.246Z,9.28
2018-12-09T02:53:17.006Z,9.34
2018-12-09T02:55:45.038Z,9.31
2018-12-09T02:58:13.178Z,9.18
2018-12-09T03:00:41.283Z,9.24
2018-12-09T03:03:09.522Z,9.24
2018-12-09T03:05:37.567Z,9.20
2018-12-09T03:08:05.666Z,9.08
2018-12-09T03:10:33.801Z,9.18
2018-12-09T03:13:01.946Z,9.08
2018-12-09T03:15:30.244Z,8.96
2018-12-09T03:17:58.418Z,8.89
2018-12-09T03:20:26.492Z,8.84
2018-12-09T03:22:54.644Z,8.93
2018-12-09T03:25:22.861Z,8.98
2018-12-09T03:27:51.399Z,9.02
2018-12-09T03:30:19.672Z,8.79
2018-12-09T03:32:47.817Z,8.52
2018-12-09T03:35:15.967Z,8.41
2018-12-09T03:37:44.084Z,8.32
2018-12-09T03:40:12.335Z,8.23
2018-12-09T03:42:40.403Z,8.21
2018-12-09T03:45:08.642Z,8.17
2018-12-09T03:47:36.779Z,8.17
2018-12-09T03:50:07.156Z,8.22
2018-12-09T03:52:35.696Z,8.33
2018-12-09T03:55:05.196Z,8.34
2018-12-09T03:57:33.446Z,8.38
2018-12-09T04:00:01.614Z,8.37
2018-12-09T04:02:30.075Z,8.40
2018-12-09T04:04:58.143Z,8.47
2018-12-09T04:07:26.218Z,8.43
2018-12-09T04:09:54.271Z,8.45
2018-12-09T04:12:22.536Z,8.36
2018-12-09T04:14:50.923Z,8.35
2018-12-09T04:17:19.095Z,8.38
2018-12-09T04:19:47.167Z,8.42
2018-12-09T04:22:15.342Z,8.41
2018-12-09T04:24:43.393Z,8.36
2018-12-09T04:27:11.548Z,8.21
2018-12-09T04:29:39.732Z,8.21
2018-12-09T04:32:07.802Z,8.10
2018-12-09T04:34:35.871Z,8.05
2018-12-09T04:37:03.938Z,7.79
2018-12-09T04:39:32.104Z,7.57
2018-12-09T04:42:00.134Z,7.39
2018-12-09T04:44:28.243Z,7.36
2018-12-09T04:46:56.315Z,7.21
2018-12-09T04:49:24.387Z,7.11
2018-12-09T04:51:55.582Z,7.05
2018-12-09T04:54:24.599Z,7.04
2018-12-09T04:56:52.754Z,7.16
2018-12-09T04:59:21.122Z,7.19
2018-12-09T05:01:49.266Z,7.29
2018-12-09T05:04:17.434Z,7.31
2018-12-09T05:06:45.615Z,7.43
2018-12-09T05:09:13.667Z,7.44
2018-12-09T05:11:41.782Z,7.48
2018-12-09T05:14:10.019Z,7.51
2018-12-09T05:16:38.184Z,7.51
2018-12-09T05:19:06.350Z,7.47
2018-12-09T05:21:34.560Z,7.50
2018-12-09T05:24:02.627Z,7.51
2018-12-09T05:26:30.790Z,7.49
2018-12-09T05:28:59.063Z,7.52
2018-12-09T05:31:27.095Z,7.53
2018-12-09T05:33:55.163Z,7.56
2018-12-09T05:36:23.600Z,7.55
2018-12-09T05:38:51.775Z,7.51
2018-12-09T05:41:19.843Z,7.47
2018-12-09T05:43:47.902Z,7.47
2018-12-09T05:46:16.024Z,7.45
2018-12-09T05:48:44.191Z,7.43
2018-12-09T05:51:12.270Z,7.41
2018-12-09T05:53:40.310Z,7.34
2018-12-09T05:56:08.475Z,7.26
2018-12-09T05:58:36.534Z,7.19
2018-12-09T06:01:04.983Z,7.04
2018-12-09T06:03:33.042Z,6.97
2018-12-09T06:06:01.119Z,7.00
2018-12-09T06:08:29.179Z,6.99
2018-12-09T06:10:57.311Z,7.04
2018-12-09T06:13:26.235Z,7.00
2018-12-09T06:15:54.582Z,7.01
2018-12-09T06:18:22.702Z,6.89
2018-12-09T06:20:51.747Z,6.86
2018-12-09T06:23:19.907Z,6.91
2018-12-09T06:25:48.375Z,6.89
2018-12-09T06:28:16.454Z,7.01
2018-12-09T06:30:44.503Z,6.98
2018-12-09T06:33:12.571Z,6.90
2018-12-09T06:35:40.774Z,6.92
2018-12-09T06:38:08.866Z,6.86
2018-12-09T06:40:36.990Z,6.77
2018-12-09T06:43:05.246Z,6.67
2018-12-09T06:45:33.294Z,6.63
2018-12-09T06:48:01.439Z,6.70
2018-12-09T06:50:29.629Z,6.72
2018-12-09T06:52:57.674Z,6.67
2018-12-09T06:55:25.828Z,6.82
2018-12-09T06:57:54.007Z,6.92
2018-12-09T07:00:22.043Z,6.93
2018-12-09T07:02:50.511Z,7.03
2018-12-09T07:05:18.571Z,7.01
2018-12-09T07:07:46.694Z,6.97
2018-12-09T07:10:14.763Z,7.00
2018-12-09T07:12:42.839Z,7.08
2018-12-09T07:15:11.110Z,7.06
2018-12-09T07:17:39.383Z,7.15
2018-12-09T07:20:08.363Z,7.21
2018-12-09T07:22:36.435Z,7.20
2018-12-09T07:25:05.234Z,7.31
2018-12-09T07:27:33.798Z,7.39
2018-12-09T07:30:02.832Z,7.44
2018-12-09T07:32:31.279Z,7.49
2018-12-09T07:34:59.656Z,7.52
2018-12-09T07:37:27.707Z,7.51
2018-12-09T07:39:56.315Z,7.55
2018-12-09T07:42:24.771Z,7.59
2018-12-09T07:44:52.966Z,7.68
2018-12-09T07:47:21.006Z,7.74
2018-12-09T07:49:49.098Z,7.78
2018-12-09T07:52:17.563Z,7.68
2018-12-09T07:54:45.614Z,7.78
2018-12-09T07:57:13.690Z,7.84
2018-12-09T07:59:41.746Z,7.86
2018-12-09T08:02:09.802Z,7.82
2018-12-09T08:04:38.003Z,7.79
2018-12-09T08:07:06.046Z,7.89
2018-12-09T08:09:34.355Z,7.84
2018-12-09T08:12:02.427Z,7.75
2018-12-09T08:14:30.512Z,7.78
2018-12-09T08:16:58.583Z,7.61
2018-12-09T08:19:27.162Z,7.54
2018-12-09T08:21:55.255Z,7.52
2018-12-09T08:24:23.339Z,7.54
2018-12-09T08:26:51.434Z,7.61
2018-12-09T08:29:19.458Z,7.62
2018-12-09T08:31:47.555Z,7.57
2018-12-09T08:34:15.636Z,7.76
2018-12-09T08:36:43.719Z,7.75
2018-12-09T08:39:11.746Z,7.81
2018-12-09T08:41:39.839Z,7.83
2018-12-09T08:44:07.879Z,7.86
2018-12-09T08:46:35.961Z,7.92
2018-12-09T08:49:04.430Z,7.99
2018-12-09T08:51:32.518Z,8.04
2018-12-09T08:54:00.577Z,7.99
2018-12-09T08:56:28.635Z,8.05
2018-12-09T08:58:56.696Z,7.96
2018-12-09T09:01:24.730Z,7.94
2018-12-09T09:03:52.898Z,7.94
2018-12-09T09:06:21.727Z,7.89
2018-12-09T09:08:49.807Z,7.93
2018-12-09T09:11:17.875Z,7.94
2018-12-09T09:13:45.971Z,7.91
2018-12-09T09:16:14.039Z,7.87
2018-12-09T09:18:42.219Z,7.91
2018-12-09T09:21:10.387Z,8.06
2018-12-09T09:23:38.460Z,8.01
2018-12-09T09:26:06.703Z,7.98
2018-12-09T09:28:34.727Z,8.00
2018-12-09T09:31:02.802Z,7.94
2018-12-09T09:33:30.875Z,8.00
2018-12-09T09:35:58.910Z,7.91
2018-12-09T09:38:27.134Z,8.00
2018-12-09T09:40:55.194Z,7.98
2018-12-09T09:43:23.242Z,8.06
2018-12-09T09:45:51.315Z,8.07
2018-12-09T09:48:19.715Z,8.03
2018-12-09T09:50:47.779Z,8.13
2018-12-09T09:53:15.871Z,8.06
2018-12-09T09:55:43.996Z,8.15
2018-12-09T09:58:12.147Z,8.32
2018-12-09T10:00:40.213Z,8.33
2018-12-09T10:03:08.327Z,8.32
2018-12-09T10:05:36.378Z,8.34
2018-12-09T10:08:04.459Z,8.30
2018-12-09T10:10:32.563Z,8.24
2018-12-09T10:13:00.636Z,8.23
2018-12-09T10:15:28.704Z,8.20
2018-12-09T10:17:56.754Z,8.29
2018-12-09T10:20:24.802Z,8.34
2018-12-09T10:22:53.024Z,8.40
2018-12-09T10:25:21.118Z,8.43
2018-12-09T10:27:49.155Z,8.54
2018-12-09T10:30:17.215Z,8.53
2018-12-09T10:32:45.282Z,8.52
2018-12-09T10:35:13.330Z,8.46
2018-12-09T10:37:41.452Z,8.42
2018-12-09T10:40:10.307Z,8.38
2018-12-09T10:42:38.367Z,8.46
2018-12-09T10:45:06.803Z,8.50
2018-12-09T10:47:34.963Z,8.48
2018-12-09T10:50:04.050Z,8.57
2018-12-09T10:52:32.131Z,8.62
2018-12-09T10:55:00.200Z,8.56
2018-12-09T10:57:28.330Z,8.51
2018-12-09T10:59:56.394Z,8.34
2018-12-09T11:02:24.790Z,8.40
2018-12-09T11:04:52.846Z,8.34
2018-12-09T11:07:20.938Z,8.27
2018-12-09T11:09:49.007Z,8.34
2018-12-09T11:12:17.067Z,8.23
2018-12-09T11:14:45.130Z,8.12
2018-12-09T11:17:13.202Z,8.22
2018-12-09T11:19:41.289Z,8.25
2018-12-09T11:22:09.763Z,8.33
2018-12-09T11:24:37.822Z,8.37
2018-12-09T11:27:05.903Z,8.39
2018-12-09T11:29:33.942Z,8.35
2018-12-09T11:32:02.004Z,8.42
2018-12-09T11:34:30.168Z,8.42
2018-12-09T11:36:58.202Z,8.51
2018-12-09T11:39:26.263Z,8.37
2018-12-09T11:41:54.347Z,8.37
2018-12-09T11:44:22.407Z,8.33
2018-12-09T11:46:50.481Z,8.37
2018-12-09T11:49:18.547Z,8.42
2018-12-09T11:51:46.630Z,8.42
2018-12-09T11:54:14.714Z,8.41
2018-12-09T11:56:42.762Z,8.45
2018-12-09T11:59:11.912Z,8.52
2018-12-09T12:01:40.196Z,8.56
2018-12-09T12:04:08.327Z,8.42
2018-12-09T12:06:36.372Z,8.41
2018-12-09T12:09:06.115Z,8.40
2018-12-09T12:11:34.283Z,8.43
2018-12-09T12:14:02.819Z,8.56
2018-12-09T12:16:30.877Z,8.64
2018-12-09T12:18:58.914Z,8.73
2018-12-09T12:21:27.050Z,8.82
2018-12-09T12:23:55.152Z,8.96
2018-12-09T12:26:23.409Z,8.78
2018-12-09T12:28:51.478Z,8.84
2018-12-09T12:31:19.543Z,8.67
2018-12-09T12:33:47.624Z,8.80
2018-12-09T12:36:15.695Z,8.74
2018-12-09T12:38:43.779Z,8.85
2018-12-09T12:41:11.826Z,8.72
2018-12-09T12:43:39.867Z,8.79
2018-12-09T12:46:07.964Z,8.85
2018-12-09T12:48:36.017Z,8.72
2018-12-09T12:51:04.228Z,8.74
2018-12-09T12:53:32.451Z,8.87
2018-12-09T12:56:00.594Z,8.98
2018-12-09T12:58:28.795Z,9.19
2018-12-09T13:00:56.879Z,9.19
2018-12-09T13:03:24.967Z,9.20
2018-12-09T13:05:53.295Z,9.20
2018-12-09T13:08:21.642Z,9.36
2018-12-09T13:10:49.735Z,9.25
2018-12-09T13:13:17.881Z,9.23
2018-12-09T13:15:45.914Z,9.18
2018-12-09T13:18:13.955Z,9.09
2018-12-09T13:20:42.007Z,8.99
2018-12-09T13:23:10.099Z,8.97
2018-12-09T13:25:38.174Z,8.99
2018-12-09T13:28:06.282Z,8.93
2018-12-09T13:30:34.479Z,8.99
2018-12-09T13:33:02.527Z,8.97
2018-12-09T13:35:30.583Z,8.90
2018-12-09T13:37:58.631Z,8.78
2018-12-09T13:40:26.795Z,8.74
2018-12-09T13:42:54.899Z,8.78
2018-12-09T13:45:23.458Z,8.66
2018-12-09T13:47:51.670Z,8.70
2018-12-09T13:50:19.743Z,8.81
2018-12-09T13:52:47.843Z,8.69
2018-12-09T13:55:15.872Z,8.65
2018-12-09T13:57:43.939Z,8.62
2018-12-09T14:00:13.900Z,8.55
2018-12-09T14:02:41.925Z,8.42
2018-12-09T14:05:09.992Z,8.25
2018-12-09T14:07:38.034Z,8.20
2018-12-09T14:10:06.595Z,8.15
2018-12-09T14:12:34.703Z,8.07
2018-12-09T14:15:03.622Z,8.04
2018-12-09T14:17:31.662Z,8.04
2018-12-09T14:19:59.862Z,8.05
2018-12-09T14:22:27.931Z,8.05
2018-12-09T14:24:55.966Z,8.03
2018-12-09T14:27:24.291Z,8.04
2018-12-09T14:29:52.554Z,8.12
2018-12-09T14:32:20.631Z,8.07
2018-12-09T14:34:48.725Z,8.10
2018-12-09T14:37:16.862Z,8.08
2018-12-09T14:39:45.323Z,8.07
2018-12-09T14:42:13.390Z,8.15
2018-12-09T14:44:41.463Z,8.14
2018-12-09T14:47:09.514Z,8.11
2018-12-09T14:49:37.586Z,8.16
2018-12-09T14:52:05.715Z,8.06
2018-12-09T14:54:33.784Z,8.07
2018-12-09T14:57:01.850Z,8.09
2018-12-09T14:59:29.890Z,8.07
2018-12-09T15:01:57.975Z,8.11
2018-12-09T15:04:26.454Z,8.06
2018-12-09T15:06:54.503Z,8.07
2018-12-09T15:09:22.587Z,8.16
2018-12-09T15:11:50.675Z,8.23
2018-12-09T15:14:18.727Z,8.10
2018-12-09T15:16:46.814Z,8.12
2018-12-09T15:19:14.870Z,8.07
2018-12-09T15:21:42.923Z,8.01
2018-12-09T15:24:10.958Z,7.95
2018-12-09T15:26:39.063Z,7.95
2018-12-09T15:29:07.159Z,7.85
2018-12-09T15:31:35.470Z,7.93
2018-12-09T15:34:03.643Z,7.90
2018-12-09T15:36:31.706Z,7.90
2018-12-09T15:38:59.783Z,7.90
2018-12-09T15:41:27.834Z,7.90
2018-12-09T15:43:55.927Z,7.90
2018-12-09T15:46:23.999Z,7.98
2018-12-09T15:48:52.037Z,8.03
2018-12-09T15:51:20.130Z,8.09
2018-12-09T15:53:48.166Z,7.99
2018-12-09T15:56:16.218Z,8.08
2018-12-09T15:58:44.310Z,8.07
2018-12-09T16:01:12.371Z,7.98
2018-12-09T16:03:40.411Z,8.03
2018-12-09T16:06:08.462Z,8.10
2018-12-09T16:08:36.539Z,8.16
2018-12-09T16:11:04.575Z,8.14
2018-12-09T16:13:35.732Z,8.12
2018-12-09T16:16:02.827Z,8.03
2018-12-09T16:18:30.891Z,8.10
2018-12-09T16:20:58.984Z,8.07
2018-12-09T16:23:27.039Z,8.08
2018-12-09T16:25:55.107Z,8.06
2018-12-09T16:28:23.237Z,8.13
2018-12-09T16:30:51.378Z,8.17
2018-12-09T16:33:19.418Z,8.21
2018-12-09T16:35:47.683Z,8.20
2018-12-09T16:38:15.842Z,8.19
2018-12-09T16:40:43.891Z,8.16
2018-12-09T16:43:12.011Z,8.36
2018-12-09T16:45:40.030Z,8.28
2018-12-09T16:48:08.120Z,8.20
2018-12-09T16:50:36.210Z,8.22
2018-12-09T16:53:04.368Z,8.32
2018-12-09T16:55:32.411Z,8.36
2018-12-09T16:58:00.510Z,8.34
2018-12-09T17:00:28.685Z,8.35
2018-12-09T17:02:56.751Z,8.44
2018-12-09T17:05:24.843Z,8.36
2018-12-09T17:07:52.919Z,8.34
2018-12-09T17:10:20.959Z,8.40
2018-12-09T17:12:49.139Z,8.30
2018-12-09T17:15:17.196Z,8.22
2018-12-09T17:17:45.283Z,8.10
2018-12-09T17:20:13.539Z,8.02
2018-12-09T17:22:41.822Z,8.04
2018-12-09T17:25:09.907Z,7.95
2018-12-09T17:27:37.999Z,7.83
2018-12-09T17:30:07.089Z,7.82
2018-12-09T17:32:35.167Z,7.76
2018-12-09T17:35:03.851Z,7.75
2018-12-09T17:37:31.931Z,7.66
2018-12-09T17:39:59.998Z,7.68
2018-12-09T17:42:28.067Z,7.68
2018-12-09T17:44:56.131Z,7.76
2018-12-09T17:47:24.208Z,7.81
2018-12-09T17:49:52.289Z,7.84
2018-12-09T17:52:20.350Z,7.98
2018-12-09T17:54:48.432Z,7.90
2018-12-09T17:57:17.490Z,7.98
2018-12-09T17:59:45.582Z,7.98
2018-12-09T18:02:13.667Z,7.92
2018-12-09T18:04:41.743Z,7.94
2018-12-09T18:07:09.856Z,7.98
2018-12-09T18:09:37.909Z,7.94
2018-12-09T18:12:06.142Z,8.01
2018-12-09T18:14:34.218Z,8.07
2018-12-09T18:17:02.289Z,8.04
2018-12-09T18:19:30.368Z,8.01
2018-12-09T18:21:58.838Z,8.00
2018-12-09T18:24:27.029Z,8.09
2018-12-09T18:26:55.097Z,7.98
2018-12-09T18:29:23.231Z,7.98
2018-12-09T18:31:51.319Z,7.94
2018-12-09T18:34:19.578Z,7.97
2018-12-09T18:36:47.654Z,7.90
2018-12-09T18:39:15.698Z,7.73
2018-12-09T18:41:43.742Z,7.70
2018-12-09T18:44:11.815Z,7.59
2018-12-09T18:46:39.858Z,7.50
2018-12-09T18:49:07.931Z,7.53
2018-12-09T18:51:36.027Z,7.57
2018-12-09T18:54:04.101Z,7.55
2018-12-09T18:56:32.147Z,7.57
2018-12-09T18:59:00.220Z,7.58
2018-12-09T19:01:28.650Z,7.61
2018-12-09T19:03:56.667Z,7.53
2018-12-09T19:06:24.775Z,7.60
2018-12-09T19:08:52.943Z,7.67
2018-12-09T19:11:21.199Z,7.67
2018-12-09T19:13:49.279Z,7.66
2018-12-09T19:16:17.339Z,7.77
2018-12-09T19:18:45.394Z,7.69
2018-12-09T19:21:13.687Z,7.57
2018-12-09T19:23:41.815Z,7.49
2018-12-09T19:26:09.886Z,7.51
2018-12-09T19:28:37.994Z,7.54
2018-12-09T19:31:06.375Z,7.58
2018-12-09T19:33:34.455Z,7.52
2018-12-09T19:36:02.546Z,7.53
2018-12-09T19:38:30.619Z,7.45
2018-12-09T19:40:58.716Z,7.46
2018-12-09T19:43:26.786Z,7.40
2018-12-09T19:45:54.868Z,7.43
2018-12-09T19:48:23.042Z,7.48
2018-12-09T19:50:51.127Z,7.53
2018-12-09T19:53:19.234Z,7.53
2018-12-09T19:55:47.311Z,7.49
2018-12-09T19:58:15.378Z,7.48
2018-12-09T20:00:43.442Z,7.63
2018-12-09T20:03:11.619Z,7.64
2018-12-09T20:05:39.765Z,7.59
2018-12-09T20:08:07.831Z,7.66
2018-12-09T20:10:35.891Z,7.63
2018-12-09T20:13:03.971Z,7.65
2018-12-09T20:15:32.024Z,7.66
2018-12-09T20:18:00.131Z,7.62
2018-12-09T20:20:28.399Z,7.74
2018-12-09T20:22:56.567Z,7.66
2018-12-09T20:25:24.781Z,7.75
2018-12-09T20:27:52.948Z,7.63
2018-12-09T20:30:21.028Z,7.63
2018-12-09T20:32:49.067Z,7.72
2018-12-09T20:35:17.115Z,7.65
2018-12-09T20:37:45.180Z,7.63
2018-12-09T20:40:13.349Z,7.54
2018-12-09T20:42:48.006Z,7.50
2018-12-09T20:45:11.475Z,7.59
2018-12-09T20:47:39.934Z,7.52
2018-12-09T20:50:08.142Z,7.52
2018-12-09T20:52:36.178Z,7.48
2018-12-09T20:55:06.522Z,7.53
2018-12-09T20:57:34.589Z,7.46
2018-12-09T21:00:02.991Z,7.48
2018-12-09T21:02:31.319Z,7.44
2018-12-09T21:04:59.334Z,7.32
2018-12-09T21:07:27.390Z,7.27
2018-12-09T21:09:55.507Z,7.30
2018-12-09T21:12:23.534Z,7.33
2018-12-09T21:14:51.607Z,7.26
2018-12-09T21:17:19.699Z,7.39
2018-12-09T21:19:48.670Z,7.35
2018-12-09T21:22:16.768Z,7.34
2018-12-09T21:24:44.830Z,7.45
2018-12-09T21:27:12.911Z,7.48
2018-12-09T21:29:40.983Z,7.49
2018-12-09T21:32:09.046Z,7.44
2018-12-09T21:34:37.411Z,7.40
2018-12-09T21:37:05.487Z,7.44
2018-12-09T21:39:33.570Z,7.41
2018-12-09T21:42:01.755Z,7.31
2018-12-09T21:44:29.799Z,7.26
2018-12-09T21:46:57.999Z,7.31
2018-12-09T21:49:26.047Z,7.33
2018-12-09T21:51:54.111Z,7.37
2018-12-09T21:54:22.294Z,7.43
2018-12-09T21:56:50.383Z,7.48
2018-12-09T21:59:18.439Z,7.37
2018-12-09T22:01:46.514Z,7.33
2018-12-09T22:04:14.595Z,7.32
2018-12-09T22:06:42.668Z,7.26
2018-12-09T22:09:10.726Z,7.36
2018-12-09T22:11:38.815Z,7.37
2018-12-09T22:14:06.889Z,7.44
2018-12-09T22:16:34.970Z,7.37
2018-12-09T22:19:03.124Z,7.43
2018-12-09T22:21:31.194Z,7.53
2018-12-09T22:23:59.586Z,7.47
2018-12-09T22:26:27.659Z,7.46
2018-12-09T22:28:55.732Z,7.37
2018-12-09T22:31:23.811Z,7.27
2018-12-09T22:33:51.852Z,7.31
2018-12-09T22:36:19.936Z,7.41
2018-12-09T22:38:48.018Z,7.42
2018-12-09T22:41:16.095Z,7.36
2018-12-09T22:43:44.226Z,7.30
2018-12-09T22:46:12.631Z,7.37
2018-12-09T22:48:40.676Z,7.13
2018-12-09T22:51:08.726Z,7.06
2018-12-09T22:53:36.797Z,6.89
2018-12-09T22:56:04.967Z,6.86
2018-12-09T22:58:33.039Z,6.85
2018-12-09T23:01:03.123Z,6.98
2018-12-09T23:03:31.359Z,7.01
2018-12-09T23:05:59.451Z,6.99
2018-12-09T23:08:27.539Z,7.03
2018-12-09T23:10:55.686Z,7.08
2018-12-09T23:13:23.734Z,6.98
2018-12-09T23:15:52.092Z,6.94
2018-12-09T23:18:20.214Z,7.07
2018-12-09T23:20:48.291Z,6.99
2018-12-09T23:23:16.368Z,7.03
2018-12-09T23:25:44.435Z,7.10
2018-12-09T23:28:12.506Z,7.06
2018-12-09T23:30:40.683Z,7.09
2018-12-09T23:33:08.814Z,7.14
2018-12-09T23:35:37.031Z,7.10
2018-12-09T23:38:05.139Z,7.12
2018-12-09T23:40:33.379Z,7.14
2018-12-09T23:43:01.446Z,7.07
2018-12-09T23:45:29.531Z,7.17
2018-12-09T23:47:57.562Z,7.16
2018-12-09T23:50:25.656Z,7.23
2018-12-09T23:52:53.745Z,7.11
2018-12-09T23:55:21.903Z,7.15
2018-12-09T23:57:49.938Z,7.23
